sensor_id;sensor_type;location;lat;lon;timestamp;pressure;altitude;pressure_sealevel;temperature;humidity
56594;BME280;42474;51.660;5.824;2023-04-07T00:00:49;101360.0;;;10.0;86.0
56594;BME280;42474;51.660;5.824;2023-04-07T00:05:49;101350.0;;;10.0;86.0
56594;BME280;42474;51.660;5.824;2023-04-07T00:10:49;101350.0;;;9.9;86.0
56594;BME280;42474;51.660;5.824;2023-04-07T00:15:49;101360.0;;;9.9;86.0
56594;BME280;42474;51.660;5.824;2023-04-07T00:20:49;101350.0;;;9.9;86.0
56594;BME280;42474;51.660;5.824;2023-04-07T00:25:49;101360.0;;;9.9;86.0
56594;BME280;42474;51.660;5.824;2023-04-07T00:30:50;101350.0;;;9.9;86.0
56594;BME280;42474;51.660;5.824;2023-04-07T00:35:49;101360.0;;;9.9;86.0
56594;BME280;42474;51.660;5.824;2023-04-07T00:40:49;101360.0;;;9.9;86.0
56594;BME280;42474;51.660;5.824;2023-04-07T00:45:49;101350.0;;;9.9;86.0
56594;BME280;42474;51.660;5.824;2023-04-07T00:50:49;101360.0;;;9.9;86.0
56594;BME280;42474;51.660;5.824;2023-04-07T00:55:49;101370.0;;;9.8;86.0
56594;BME280;42474;51.660;5.824;2023-04-07T01:00:58;101360.0;;;9.8;86.0
56594;BME280;42474;51.660;5.824;2023-04-07T01:06:00;101360.0;;;9.8;86.0
56594;BME280;42474;51.660;5.824;2023-04-07T01:11:07;101350.0;;;9.8;86.0
56594;BME280;42474;51.660;5.824;2023-04-07T01:15:51;101360.0;;;9.8;86.0
56594;BME280;42474;51.660;5.824;2023-04-07T01:20:50;101360.0;;;9.8;86.0
56594;BME280;42474;51.660;5.824;2023-04-07T01:26:32;101360.0;;;9.8;86.0
56594;BME280;42474;51.660;5.824;2023-04-07T01:30:51;101360.0;;;9.8;86.0
56594;BME280;42474;51.660;5.824;2023-04-07T01:35:50;101370.0;;;9.7;86.0
56594;BME280;42474;51.660;5.824;2023-04-07T01:40:50;101380.0;;;9.7;86.0
56594;BME280;42474;51.660;5.824;2023-04-07T01:45:50;101370.0;;;9.6;86.0
56594;BME280;42474;51.660;5.824;2023-04-07T01:50:49;101380.0;;;9.6;86.0
56594;BME280;42474;51.660;5.824;2023-04-07T01:55:51;101380.0;;;9.6;86.0
56594;BME280;42474;51.660;5.824;2023-04-07T02:00:49;101380.0;;;9.5;86.0
56594;BME280;42474;51.660;5.824;2023-04-07T02:05:54;101380.0;;;9.5;86.0
56594;BME280;42474;51.660;5.824;2023-04-07T02:10:50;101390.0;;;9.5;86.0
56594;BME280;42474;51.660;5.824;2023-04-07T02:15:51;101380.0;;;9.4;86.0
56594;BME280;42474;51.660;5.824;2023-04-07T02:20:50;101400.0;;;9.4;86.0
56594;BME280;42474;51.660;5.824;2023-04-07T02:25:49;101410.0;;;9.4;86.5
56594;BME280;42474;51.660;5.824;2023-04-07T02:30:49;101410.0;;;9.4;86.5
56594;BME280;42474;51.660;5.824;2023-04-07T02:35:49;101400.0;;;9.4;86.5
56594;BME280;42474;51.660;5.824;2023-04-07T02:40:49;101400.0;;;9.4;86.5
56594;BME280;42474;51.660;5.824;2023-04-07T02:45:49;101400.0;;;9.4;86.5
56594;BME280;42474;51.660;5.824;2023-04-07T02:50:49;101400.0;;;9.4;86.5
56594;BME280;42474;51.660;5.824;2023-04-07T02:55:49;101400.0;;;9.4;86.0
56594;BME280;42474;51.660;5.824;2023-04-07T03:00:49;101400.0;;;9.4;86.0
56594;BME280;42474;51.660;5.824;2023-04-07T03:05:49;101410.0;;;9.4;86.0
56594;BME280;42474;51.660;5.824;2023-04-07T03:10:49;101410.0;;;9.4;86.0
56594;BME280;42474;51.660;5.824;2023-04-07T03:15:50;101400.0;;;9.4;86.0
56594;BME280;42474;51.660;5.824;2023-04-07T03:20:49;101400.0;;;9.4;86.0
56594;BME280;42474;51.660;5.824;2023-04-07T03:25:49;101410.0;;;9.3;86.0
56594;BME280;42474;51.660;5.824;2023-04-07T03:30:49;101400.0;;;9.3;86.0
56594;BME280;42474;51.660;5.824;2023-04-07T03:35:49;101400.0;;;9.3;86.0
56594;BME280;42474;51.660;5.824;2023-04-07T03:40:49;101400.0;;;9.3;86.0
56594;BME280;42474;51.660;5.824;2023-04-07T03:45:51;101400.0;;;9.3;86.0
56594;BME280;42474;51.660;5.824;2023-04-07T03:50:49;101400.0;;;9.3;86.5
56594;BME280;42474;51.660;5.824;2023-04-07T03:55:50;101410.0;;;9.3;86.5
56594;BME280;42474;51.660;5.824;2023-04-07T04:00:49;101410.0;;;9.3;86.5
56594;BME280;42474;51.660;5.824;2023-04-07T04:05:49;101410.0;;;9.3;86.5
56594;BME280;42474;51.660;5.824;2023-04-07T04:10:49;101410.0;;;9.3;86.5
56594;BME280;42474;51.660;5.824;2023-04-07T04:15:49;101420.0;;;9.3;86.5
56594;BME280;42474;51.660;5.824;2023-04-07T04:20:49;101420.0;;;9.3;86.5
56594;BME280;42474;51.660;5.824;2023-04-07T04:25:49;101420.0;;;9.3;86.5
56594;BME280;42474;51.660;5.824;2023-04-07T04:30:49;101430.0;;;9.3;86.5
56594;BME280;42474;51.660;5.824;2023-04-07T04:35:49;101430.0;;;9.3;86.5
56594;BME280;42474;51.660;5.824;2023-04-07T04:40:49;101430.0;;;9.3;86.5
56594;BME280;42474;51.660;5.824;2023-04-07T04:45:49;101430.0;;;9.3;86.5
56594;BME280;42474;51.660;5.824;2023-04-07T04:50:49;101440.0;;;9.3;86.5
56594;BME280;42474;51.660;5.824;2023-04-07T04:55:49;101450.0;;;9.3;86.5
56594;BME280;42474;51.660;5.824;2023-04-07T05:00:52;101450.0;;;9.3;86.5
56594;BME280;42474;51.660;5.824;2023-04-07T05:05:49;101450.0;;;9.3;86.5
56594;BME280;42474;51.660;5.824;2023-04-07T05:10:49;101460.0;;;9.3;86.5
56594;BME280;42474;51.660;5.824;2023-04-07T05:15:49;101450.0;;;9.3;86.5
56594;BME280;42474;51.660;5.824;2023-04-07T05:20:50;101460.0;;;9.3;86.5
56594;BME280;42474;51.660;5.824;2023-04-07T05:25:49;101460.0;;;9.3;86.5
56594;BME280;42474;51.660;5.824;2023-04-07T05:30:49;101460.0;;;9.4;86.5
56594;BME280;42474;51.660;5.824;2023-04-07T05:35:49;101460.0;;;9.4;86.5
56594;BME280;42474;51.660;5.824;2023-04-07T05:40:49;101470.0;;;9.3;86.5
56594;BME280;42474;51.660;5.824;2023-04-07T05:45:49;101480.0;;;9.4;86.5
56594;BME280;42474;51.660;5.824;2023-04-07T05:50:49;101480.0;;;9.4;86.0
56594;BME280;42474;51.660;5.824;2023-04-07T05:55:49;101480.0;;;9.4;86.0
56594;BME280;42474;51.660;5.824;2023-04-07T06:00:49;101490.0;;;9.4;86.5
56594;BME280;42474;51.660;5.824;2023-04-07T06:05:50;101490.0;;;9.4;86.5
56594;BME280;42474;51.660;5.824;2023-04-07T06:10:49;101500.0;;;9.5;86.0
56594;BME280;42474;51.660;5.824;2023-04-07T06:15:49;101500.0;;;9.5;86.5
56594;BME280;42474;51.660;5.824;2023-04-07T06:20:49;101500.0;;;9.5;86.5
56594;BME280;42474;51.660;5.824;2023-04-07T06:25:49;101500.0;;;9.5;86.5
56594;BME280;42474;51.660;5.824;2023-04-07T06:30:49;101500.0;;;9.6;86.5
56594;BME280;42474;51.660;5.824;2023-04-07T06:35:50;101510.0;;;9.6;86.5
56594;BME280;42474;51.660;5.824;2023-04-07T06:40:50;101510.0;;;9.6;86.5
56594;BME280;42474;51.660;5.824;2023-04-07T06:45:49;101520.0;;;9.6;86.5
56594;BME280;42474;51.660;5.824;2023-04-07T06:55:49;101530.0;;;9.6;86.5
56594;BME280;42474;51.660;5.824;2023-04-07T07:00:49;101530.0;;;9.6;86.0
56594;BME280;42474;51.660;5.824;2023-04-07T07:05:50;101540.0;;;9.6;86.5
56594;BME280;42474;51.660;5.824;2023-04-07T07:10:50;101540.0;;;9.6;86.5
56594;BME280;42474;51.660;5.824;2023-04-07T07:15:50;101540.0;;;9.7;86.5
56594;BME280;42474;51.660;5.824;2023-04-07T07:20:49;101540.0;;;9.7;86.0
56594;BME280;42474;51.660;5.824;2023-04-07T07:25:50;101550.0;;;9.8;86.0
56594;BME280;42474;51.660;5.824;2023-04-07T07:30:50;101550.0;;;9.8;86.0
56594;BME280;42474;51.660;5.824;2023-04-07T07:35:50;101560.0;;;9.9;86.0
56594;BME280;42474;51.660;5.824;2023-04-07T07:40:49;101560.0;;;10.0;86.0
56594;BME280;42474;51.660;5.824;2023-04-07T07:45:49;101560.0;;;10.0;85.5
56594;BME280;42474;51.660;5.824;2023-04-07T07:50:50;101570.0;;;10.1;86.0
56594;BME280;42474;51.660;5.824;2023-04-07T07:55:49;101570.0;;;10.2;85.5
56594;BME280;42474;51.660;5.824;2023-04-07T08:00:49;101570.0;;;10.3;85.5
56594;BME280;42474;51.660;5.824;2023-04-07T08:05:49;101580.0;;;10.4;85.5
56594;BME280;42474;51.660;5.824;2023-04-07T08:10:49;101590.0;;;10.5;85.5
56594;BME280;42474;51.660;5.824;2023-04-07T08:15:50;101580.0;;;10.7;85.0
56594;BME280;42474;51.660;5.824;2023-04-07T08:20:50;101590.0;;;10.9;85.0
56594;BME280;42474;51.660;5.824;2023-04-07T08:25:50;101590.0;;;11.1;84.5
56594;BME280;42474;51.660;5.824;2023-04-07T08:30:49;101600.0;;;11.3;84.0
56594;BME280;42474;51.660;5.824;2023-04-07T08:35:49;101610.0;;;11.3;83.0
56594;BME280;42474;51.660;5.824;2023-04-07T08:41:00;101610.0;;;11.3;82.5
56594;BME280;42474;51.660;5.824;2023-04-07T08:45:50;101610.0;;;11.3;82.5
56594;BME280;42474;51.660;5.824;2023-04-07T08:50:50;101620.0;;;11.2;82.0
56594;BME280;42474;51.660;5.824;2023-04-07T08:55:50;101630.0;;;11.1;82.0
56594;BME280;42474;51.660;5.824;2023-04-07T09:00:50;101630.0;;;11.0;82.0
56594;BME280;42474;51.660;5.824;2023-04-07T09:05:50;101630.0;;;11.0;82.0
56594;BME280;42474;51.660;5.824;2023-04-07T09:10:50;101630.0;;;11.0;82.0
56594;BME280;42474;51.660;5.824;2023-04-07T09:15:50;101640.0;;;11.0;82.0
56594;BME280;42474;51.660;5.824;2023-04-07T09:21:05;101630.0;;;11.0;82.0
56594;BME280;42474;51.660;5.824;2023-04-07T09:25:49;101640.0;;;11.1;82.0
56594;BME280;42474;51.660;5.824;2023-04-07T09:30:53;101640.0;;;11.2;82.0
56594;BME280;42474;51.660;5.824;2023-04-07T09:35:51;101640.0;;;11.4;82.5
56594;BME280;42474;51.660;5.824;2023-04-07T09:40:49;101640.0;;;11.5;81.5
56594;BME280;42474;51.660;5.824;2023-04-07T09:45:49;101640.0;;;11.4;81.0
56594;BME280;42474;51.660;5.824;2023-04-07T09:50:50;101640.0;;;11.3;81.0
56594;BME280;42474;51.660;5.824;2023-04-07T09:55:50;101650.0;;;11.3;81.0
56594;BME280;42474;51.660;5.824;2023-04-07T10:00:50;101660.0;;;11.4;81.0
56594;BME280;42474;51.660;5.824;2023-04-07T10:05:51;101660.0;;;11.5;81.0
56594;BME280;42474;51.660;5.824;2023-04-07T10:10:49;101660.0;;;11.6;80.5
56594;BME280;42474;51.660;5.824;2023-04-07T10:15:50;101660.0;;;11.6;80.0
56594;BME280;42474;51.660;5.824;2023-04-07T10:20:51;101670.0;;;11.5;80.0
56594;BME280;42474;51.660;5.824;2023-04-07T10:25:51;101660.0;;;11.5;80.0
56594;BME280;42474;51.660;5.824;2023-04-07T10:30:50;101660.0;;;11.5;80.0
56594;BME280;42474;51.660;5.824;2023-04-07T10:36:04;101670.0;;;11.6;79.5
56594;BME280;42474;51.660;5.824;2023-04-07T10:40:50;101670.0;;;11.6;79.5
56594;BME280;42474;51.660;5.824;2023-04-07T10:45:57;101670.0;;;11.6;79.0
56594;BME280;42474;51.660;5.824;2023-04-07T10:51:13;101680.0;;;11.5;79.0
56594;BME280;42474;51.660;5.824;2023-04-07T10:55:53;101680.0;;;11.5;79.0
56594;BME280;42474;51.660;5.824;2023-04-07T11:01:17;101690.0;;;11.4;79.0
56594;BME280;42474;51.660;5.824;2023-04-07T11:05:50;101690.0;;;11.3;79.0
56594;BME280;42474;51.660;5.824;2023-04-07T11:10:50;101700.0;;;11.2;79.0
56594;BME280;42474;51.660;5.824;2023-04-07T11:15:49;101700.0;;;11.1;79.0
56594;BME280;42474;51.660;5.824;2023-04-07T11:20:51;101700.0;;;11.1;79.0
56594;BME280;42474;51.660;5.824;2023-04-07T11:25:51;101700.0;;;11.1;79.5
56594;BME280;42474;51.660;5.824;2023-04-07T11:30:54;101700.0;;;11.3;79.5
56594;BME280;42474;51.660;5.824;2023-04-07T11:35:50;101710.0;;;11.4;79.5
56594;BME280;42474;51.660;5.824;2023-04-07T11:40:50;101710.0;;;11.5;79.0
56594;BME280;42474;51.660;5.824;2023-04-07T11:46:06;101710.0;;;11.6;79.0
56594;BME280;42474;51.660;5.824;2023-04-07T11:50:49;101710.0;;;11.7;78.5
56594;BME280;42474;51.660;5.824;2023-04-07T11:55:57;101720.0;;;11.8;78.5
56594;BME280;42474;51.660;5.824;2023-04-07T12:00:53;101730.0;;;11.9;78.5
56594;BME280;42474;51.660;5.824;2023-04-07T12:05:50;101740.0;;;11.8;77.5
56594;BME280;42474;51.660;5.824;2023-04-07T12:11:01;101740.0;;;11.5;77.0
56594;BME280;42474;51.660;5.824;2023-04-07T12:15:49;101750.0;;;11.3;77.5
56594;BME280;42474;51.660;5.824;2023-04-07T12:20:49;101750.0;;;11.3;78.0
56594;BME280;42474;51.660;5.824;2023-04-07T12:25:50;101750.0;;;11.3;78.0
56594;BME280;42474;51.660;5.824;2023-04-07T12:30:50;101760.0;;;11.4;78.5
56594;BME280;42474;51.660;5.824;2023-04-07T12:35:50;101760.0;;;11.5;78.0
56594;BME280;42474;51.660;5.824;2023-04-07T12:40:50;101750.0;;;11.4;78.0
56594;BME280;42474;51.660;5.824;2023-04-07T12:45:50;101760.0;;;11.5;78.0
56594;BME280;42474;51.660;5.824;2023-04-07T12:50:50;101760.0;;;11.7;78.0
56594;BME280;42474;51.660;5.824;2023-04-07T12:55:50;101760.0;;;11.9;77.5
56594;BME280;42474;51.660;5.824;2023-04-07T13:00:50;101770.0;;;12.2;77.5
56594;BME280;42474;51.660;5.824;2023-04-07T13:05:51;101760.0;;;12.4;77.0
56594;BME280;42474;51.660;5.824;2023-04-07T13:10:50;101770.0;;;12.5;76.5
56594;BME280;42474;51.660;5.824;2023-04-07T13:15:50;101770.0;;;12.5;76.0
56594;BME280;42474;51.660;5.824;2023-04-07T13:20:50;101770.0;;;12.4;76.0
56594;BME280;42474;51.660;5.824;2023-04-07T13:25:50;101780.0;;;12.4;75.5
56594;BME280;42474;51.660;5.824;2023-04-07T13:30:50;101790.0;;;12.3;75.5
56594;BME280;42474;51.660;5.824;2023-04-07T13:35:50;101780.0;;;12.2;75.5
56594;BME280;42474;51.660;5.824;2023-04-07T13:40:50;101780.0;;;12.1;75.5
56594;BME280;42474;51.660;5.824;2023-04-07T13:45:50;101780.0;;;12.2;75.5
56594;BME280;42474;51.660;5.824;2023-04-07T13:50:50;101780.0;;;12.5;75.5
56594;BME280;42474;51.660;5.824;2023-04-07T13:55:50;101780.0;;;12.6;75.5
56594;BME280;42474;51.660;5.824;2023-04-07T14:00:50;101780.0;;;12.8;75.0
56594;BME280;42474;51.660;5.824;2023-04-07T14:05:50;101790.0;;;12.7;74.5
56594;BME280;42474;51.660;5.824;2023-04-07T14:10:50;101780.0;;;12.5;74.0
56594;BME280;42474;51.660;5.824;2023-04-07T14:15:50;101790.0;;;12.4;74.5
56594;BME280;42474;51.660;5.824;2023-04-07T14:20:50;101790.0;;;12.3;74.5
56594;BME280;42474;51.660;5.824;2023-04-07T14:25:50;101790.0;;;12.4;74.5
56594;BME280;42474;51.660;5.824;2023-04-07T14:30:50;101790.0;;;12.3;74.5
56594;BME280;42474;51.660;5.824;2023-04-07T14:35:50;101790.0;;;12.4;74.5
56594;BME280;42474;51.660;5.824;2023-04-07T14:40:50;101790.0;;;12.4;74.5
56594;BME280;42474;51.660;5.824;2023-04-07T14:45:50;101790.0;;;12.5;74.5
56594;BME280;42474;51.660;5.824;2023-04-07T14:50:50;101780.0;;;12.6;75.0
56594;BME280;42474;51.660;5.824;2023-04-07T14:55:50;101790.0;;;12.6;74.0
56594;BME280;42474;51.660;5.824;2023-04-07T15:00:50;101800.0;;;12.5;74.5
56594;BME280;42474;51.660;5.824;2023-04-07T15:05:50;101800.0;;;12.5;74.5
56594;BME280;42474;51.660;5.824;2023-04-07T15:10:50;101800.0;;;12.5;74.5
56594;BME280;42474;51.660;5.824;2023-04-07T15:15:50;101810.0;;;12.5;74.0
56594;BME280;42474;51.660;5.824;2023-04-07T15:20:50;101810.0;;;12.3;74.0
56594;BME280;42474;51.660;5.824;2023-04-07T15:25:50;101810.0;;;12.2;74.0
56594;BME280;42474;51.660;5.824;2023-04-07T15:30:50;101810.0;;;12.1;74.0
56594;BME280;42474;51.660;5.824;2023-04-07T15:35:50;101810.0;;;12.1;74.0
56594;BME280;42474;51.660;5.824;2023-04-07T15:40:50;101810.0;;;12.0;74.5
56594;BME280;42474;51.660;5.824;2023-04-07T15:45:50;101820.0;;;11.8;74.5
56594;BME280;42474;51.660;5.824;2023-04-07T15:50:51;101820.0;;;11.7;74.5
56594;BME280;42474;51.660;5.824;2023-04-07T15:55:50;101830.0;;;11.7;75.0
56594;BME280;42474;51.660;5.824;2023-04-07T16:00:50;101820.0;;;11.7;75.0
56594;BME280;42474;51.660;5.824;2023-04-07T16:05:50;101830.0;;;11.8;75.0
56594;BME280;42474;51.660;5.824;2023-04-07T16:10:50;101840.0;;;11.8;75.5
56594;BME280;42474;51.660;5.824;2023-04-07T16:15:54;101840.0;;;11.8;75.0
56594;BME280;42474;51.660;5.824;2023-04-07T16:20:50;101840.0;;;11.7;75.0
56594;BME280;42474;51.660;5.824;2023-04-07T16:25:50;101840.0;;;11.6;75.5
56594;BME280;42474;51.660;5.824;2023-04-07T16:30:50;101850.0;;;11.5;75.5
56594;BME280;42474;51.660;5.824;2023-04-07T16:35:50;101850.0;;;11.4;75.5
56594;BME280;42474;51.660;5.824;2023-04-07T16:40:50;101850.0;;;11.3;76.0
56594;BME280;42474;51.660;5.824;2023-04-07T16:45:50;101860.0;;;11.3;76.0
56594;BME280;42474;51.660;5.824;2023-04-07T16:50:50;101860.0;;;11.2;76.0
56594;BME280;42474;51.660;5.824;2023-04-07T16:55:50;101860.0;;;11.1;76.5
56594;BME280;42474;51.660;5.824;2023-04-07T17:00:50;101870.0;;;11.1;76.5
56594;BME280;42474;51.660;5.824;2023-04-07T17:05:50;101870.0;;;11.1;76.5
56594;BME280;42474;51.660;5.824;2023-04-07T17:10:50;101880.0;;;11.1;77.0
56594;BME280;42474;51.660;5.824;2023-04-07T17:15:50;101890.0;;;11.1;77.0
56594;BME280;42474;51.660;5.824;2023-04-07T17:20:50;101900.0;;;11.1;77.0
56594;BME280;42474;51.660;5.824;2023-04-07T17:25:50;101900.0;;;11.0;77.0
56594;BME280;42474;51.660;5.824;2023-04-07T17:30:50;101920.0;;;11.0;77.5
56594;BME280;42474;51.660;5.824;2023-04-07T17:35:50;101920.0;;;11.0;77.0
56594;BME280;42474;51.660;5.824;2023-04-07T17:40:55;101930.0;;;10.9;77.5
56594;BME280;42474;51.660;5.824;2023-04-07T17:45:50;101940.0;;;10.9;77.5
56594;BME280;42474;51.660;5.824;2023-04-07T17:50:50;101940.0;;;10.9;77.5
56594;BME280;42474;51.660;5.824;2023-04-07T17:55:50;101950.0;;;10.9;77.5
56594;BME280;42474;51.660;5.824;2023-04-07T18:00:50;101950.0;;;10.9;77.5
56594;BME280;42474;51.660;5.824;2023-04-07T18:05:51;101950.0;;;10.9;78.0
56594;BME280;42474;51.660;5.824;2023-04-07T18:10:50;101960.0;;;10.8;78.0
56594;BME280;42474;51.660;5.824;2023-04-07T18:15:50;101960.0;;;10.8;78.0
56594;BME280;42474;51.660;5.824;2023-04-07T18:20:50;101960.0;;;10.8;78.0
56594;BME280;42474;51.660;5.824;2023-04-07T18:25:50;101970.0;;;10.8;78.0
56594;BME280;42474;51.660;5.824;2023-04-07T18:30:57;101960.0;;;10.8;78.0
56594;BME280;42474;51.660;5.824;2023-04-07T18:35:50;101970.0;;;10.7;78.5
56594;BME280;42474;51.660;5.824;2023-04-07T18:40:50;101980.0;;;10.7;78.0
56594;BME280;42474;51.660;5.824;2023-04-07T18:45:50;101980.0;;;10.6;78.5
56594;BME280;42474;51.660;5.824;2023-04-07T18:50:50;101990.0;;;10.6;78.5
56594;BME280;42474;51.660;5.824;2023-04-07T18:55:50;101990.0;;;10.6;78.5
56594;BME280;42474;51.660;5.824;2023-04-07T19:00:50;102000.0;;;10.5;78.5
56594;BME280;42474;51.660;5.824;2023-04-07T19:05:50;102020.0;;;10.5;79.0
56594;BME280;42474;51.660;5.824;2023-04-07T19:10:50;102020.0;;;10.5;79.0
56594;BME280;42474;51.660;5.824;2023-04-07T19:15:50;102030.0;;;10.5;79.0
56594;BME280;42474;51.660;5.824;2023-04-07T19:20:50;102030.0;;;10.4;79.0
56594;BME280;42474;51.660;5.824;2023-04-07T19:25:50;102040.0;;;10.4;79.5
56594;BME280;42474;51.660;5.824;2023-04-07T19:30:50;102030.0;;;10.4;79.5
56594;BME280;42474;51.660;5.824;2023-04-07T19:35:50;102040.0;;;10.3;79.5
56594;BME280;42474;51.660;5.824;2023-04-07T19:40:50;102040.0;;;10.3;79.5
56594;BME280;42474;51.660;5.824;2023-04-07T19:45:50;102060.0;;;10.2;80.0
56594;BME280;42474;51.660;5.824;2023-04-07T19:50:50;102050.0;;;10.2;80.0
56594;BME280;42474;51.660;5.824;2023-04-07T19:55:50;102070.0;;;10.2;80.5
56594;BME280;42474;51.660;5.824;2023-04-07T20:00:50;102060.0;;;10.2;80.5
56594;BME280;42474;51.660;5.824;2023-04-07T20:05:51;102070.0;;;10.2;80.5
56594;BME280;42474;51.660;5.824;2023-04-07T20:10:50;102070.0;;;10.2;81.0
56594;BME280;42474;51.660;5.824;2023-04-07T20:15:50;102080.0;;;10.2;81.0
56594;BME280;42474;51.660;5.824;2023-04-07T20:20:56;102070.0;;;10.2;81.0
56594;BME280;42474;51.660;5.824;2023-04-07T20:25:50;102080.0;;;10.2;81.5
56594;BME280;42474;51.660;5.824;2023-04-07T20:30:50;102080.0;;;10.2;81.5
56594;BME280;42474;51.660;5.824;2023-04-07T20:35:50;102090.0;;;10.2;81.5
56594;BME280;42474;51.660;5.824;2023-04-07T20:40:50;102090.0;;;10.1;81.5
56594;BME280;42474;51.660;5.824;2023-04-07T20:45:50;102100.0;;;10.1;81.5
56594;BME280;42474;51.660;5.824;2023-04-07T20:50:50;102100.0;;;10.1;82.0
56594;BME280;42474;51.660;5.824;2023-04-07T20:55:50;102100.0;;;10.1;82.0
56594;BME280;42474;51.660;5.824;2023-04-07T21:00:53;102100.0;;;10.1;82.0
56594;BME280;42474;51.660;5.824;2023-04-07T21:05:50;102110.0;;;10.1;82.0
56594;BME280;42474;51.660;5.824;2023-04-07T21:10:50;102120.0;;;10.1;82.5
56594;BME280;42474;51.660;5.824;2023-04-07T21:15:50;102100.0;;;10.1;82.5
56594;BME280;42474;51.660;5.824;2023-04-07T21:20:50;102120.0;;;10.1;82.5
56594;BME280;42474;51.660;5.824;2023-04-07T21:25:50;102110.0;;;10.0;83.0
56594;BME280;42474;51.660;5.824;2023-04-07T21:30:50;102110.0;;;10.0;83.0
56594;BME280;42474;51.660;5.824;2023-04-07T21:35:50;102110.0;;;10.0;83.5
56594;BME280;42474;51.660;5.824;2023-04-07T21:40:50;102110.0;;;10.0;83.5
56594;BME280;42474;51.660;5.824;2023-04-07T21:45:50;102110.0;;;10.0;83.5
56594;BME280;42474;51.660;5.824;2023-04-07T21:50:50;102110.0;;;9.9;83.5
56594;BME280;42474;51.660;5.824;2023-04-07T21:55:50;102110.0;;;9.9;83.5
56594;BME280;42474;51.660;5.824;2023-04-07T22:00:51;102110.0;;;9.9;84.0
56594;BME280;42474;51.660;5.824;2023-04-07T22:05:50;102110.0;;;9.8;84.0
56594;BME280;42474;51.660;5.824;2023-04-07T22:10:50;102120.0;;;9.8;84.0
56594;BME280;42474;51.660;5.824;2023-04-07T22:15:50;102120.0;;;9.8;84.0
56594;BME280;42474;51.660;5.824;2023-04-07T22:20:50;102130.0;;;9.8;84.5
56594;BME280;42474;51.660;5.824;2023-04-07T22:25:50;102130.0;;;9.8;84.5
56594;BME280;42474;51.660;5.824;2023-04-07T22:30:50;102130.0;;;9.8;84.5
56594;BME280;42474;51.660;5.824;2023-04-07T22:35:50;102140.0;;;9.8;84.5
56594;BME280;42474;51.660;5.824;2023-04-07T22:40:50;102140.0;;;9.7;84.5
56594;BME280;42474;51.660;5.824;2023-04-07T22:45:50;102140.0;;;9.7;85.0
56594;BME280;42474;51.660;5.824;2023-04-07T22:50:50;102140.0;;;9.7;85.0
56594;BME280;42474;51.660;5.824;2023-04-07T22:55:50;102130.0;;;9.7;85.0
56594;BME280;42474;51.660;5.824;2023-04-07T23:00:50;102140.0;;;9.7;85.5
56594;BME280;42474;51.660;5.824;2023-04-07T23:05:50;102140.0;;;9.7;85.5
56594;BME280;42474;51.660;5.824;2023-04-07T23:10:50;102150.0;;;9.6;85.5
56594;BME280;42474;51.660;5.824;2023-04-07T23:15:50;102150.0;;;9.6;85.5
56594;BME280;42474;51.660;5.824;2023-04-07T23:20:50;102150.0;;;9.6;86.0
56594;BME280;42474;51.660;5.824;2023-04-07T23:25:50;102150.0;;;9.6;86.0
56594;BME280;42474;51.660;5.824;2023-04-07T23:30:50;102160.0;;;9.6;86.0
56594;BME280;42474;51.660;5.824;2023-04-07T23:35:50;102160.0;;;9.7;86.5
56594;BME280;42474;51.660;5.824;2023-04-07T23:40:50;102160.0;;;9.7;86.5
56594;BME280;42474;51.660;5.824;2023-04-07T23:45:50;102160.0;;;9.7;86.5
56594;BME280;42474;51.660;5.824;2023-04-07T23:50:50;102160.0;;;9.7;86.5
56594;BME280;42474;51.660;5.824;2023-04-07T23:55:50;102170.0;;;9.7;86.5
